Live aus Altenrhein
LIVE
LSZR 222350Z AUTO 26009KT 220V290 9999 -RA BKN043 08/04 Q1020
Zeitraffer heute
2017-10-23 00:15:00
LSZR 222150Z AUTO 26009KT 230V290 9999 -RA BKN041 SCT046 09/04 Q1020
Zeitraffer gestern
2017-10-22 00:14:55
LSZR 212150Z AUTO 27012KT 9999 RA FEW019 OVC060 11/09 Q1021
Zeitraffer vor 3 Tagen
2017-10-20 00:14:58
LSZR 192150Z AUTO VRB02KT 6000 NSC 08/08 Q1013